nws-alerts: Checking more than four warning/county codes can delay the loading of your pages. You should use a cron job to get the data.
EllijayWeather Station Historical Data
Daily Summary for November 23, 2018 Units:  Metric    English   Both
Daily Weekly Monthly Yearly Custom
  High: Low: Average:
Temperature: 8.2 °C 1.4 °C 5.3 °C
Dew Point: 2.8 °C -5.6 °C -0.1 °C
Humidity: 76% 54% 69%
Wind Speed: 16.3km/h 0km/h 2.7km/h
Wind Gust: 27.4km/h - -
Wind- - SE
Pressure: 1029.3 hPa 1017.5 hPa -
Precipitation: 0.25 mm    
Historical Graphs
 
 
Tabular Data for November 23, 2018
Time Temperature Dew Point Pressure Wind Wind Speed Wind Gust Humidity Rainfall Rate (Hourly) solar
00:04 2.1 °C -4.6 °C 1029.3 hPa Calm     61% 0 mm meteobridge W/m2
00:09 2 °C -4.7 °C 1029.3 hPa Calm     61% 0 mm meteobridge W/m2
00:14 1.9 °C -4.8 °C 1029.3 hPa Calm     61% 0 mm meteobridge W/m2
00:19 1.9 °C -4.8 °C 1029.3 hPa Calm     61% 0 mm meteobridge W/m2
00:24 1.8 °C -4.9 °C 1029.3 hPa Calm     61% 0 mm meteobridge W/m2
00:29 1.7 °C -5 °C 1029.3 hPa Calm     61% 0 mm meteobridge W/m2
00:34 1.7 °C -5 °C 1029.3 hPa Calm     61% 0 mm meteobridge W/m2
00:39 1.6 °C -5.1 °C 1029.3 hPa Calm     61% 0 mm meteobridge W/m2
00:44 1.6 °C -5.1 °C 1029 hPa Calm     61% 0 mm meteobridge W/m2
00:49 1.6 °C -5.1 °C 1029 hPa Calm     61% 0 mm meteobridge W/m2
00:54 1.6 °C -5.3 °C 1029 hPa Calm     60% 0 mm meteobridge W/m2
00:59 1.6 °C -5.3 °C 1029 hPa Calm     60% 0 mm meteobridge W/m2
01:04 1.6 °C -5.3 °C 1028.7 hPa Calm     60% 0 mm meteobridge W/m2
01:09 1.6 °C -5.3 °C 1028.7 hPa Calm     60% 0 mm meteobridge W/m2
01:14 1.6 °C -5.6 °C 1028.7 hPa Calm     59% 0 mm meteobridge W/m2
01:19 1.6 °C -5.3 °C 1028.3 hPa Calm     60% 0 mm meteobridge W/m2
01:24 1.5 °C -5.4 °C 1028.3 hPa Calm     60% 0 mm meteobridge W/m2
01:29 1.4 °C -5.5 °C 1028.3 hPa Calm     60% 0 mm meteobridge W/m2
01:34 1.6 °C -5.6 °C 1028.3 hPa Calm     59% 0 mm meteobridge W/m2
01:39 1.8 °C -5.6 °C 1028.3 hPa Calm     58% 0 mm meteobridge W/m2
01:44 2.1 °C -5.5 °C 1028.3 hPa Calm     57% 0 mm meteobridge W/m2
01:49 2.3 °C -5.6 °C 1028.3 hPa Calm     56% 0 mm meteobridge W/m2
01:54 2.4 °C -5.5 °C 1028 hPa Calm     56% 0 mm meteobridge W/m2
01:59 2.5 °C -5.4 °C 1028 hPa Calm     56% 0 mm meteobridge W/m2
02:04 2.7 °C -5.2 °C 1028 hPa Calm     56% 0 mm meteobridge W/m2
02:09 2.9 °C -5.3 °C 1028 hPa Calm     55% 0 mm meteobridge W/m2
02:14 3.1 °C -5.1 °C 1028 hPa Calm     55% 0 mm meteobridge W/m2
02:19 3.1 °C -5.1 °C 1028 hPa Calm     55% 0 mm meteobridge W/m2
02:24 3.2 °C -5 °C 1028 hPa Calm     55% 0 mm meteobridge W/m2
02:29 3.4 °C -5 °C 1028 hPa Calm     54% 0 mm meteobridge W/m2
02:34 3.4 °C -4.8 °C 1028 hPa Calm     55% 0 mm meteobridge W/m2
02:39 3.5 °C -4.7 °C 1028 hPa Calm     55% 0 mm meteobridge W/m2
02:44 3.6 °C -4.6 °C 1028 hPa Calm     55% 0 mm meteobridge W/m2
02:49 3.6 °C -4.6 °C 1028 hPa Calm     55% 0 mm meteobridge W/m2
02:54 3.6 °C -4.6 °C 1028 hPa Calm     55% 0 mm meteobridge W/m2
02:59 3.8 °C -4.4 °C 1028 hPa Calm     55% 0 mm meteobridge W/m2
03:04 3.8 °C -4.4 °C 1028 hPa Calm     55% 0 mm meteobridge W/m2
03:09 3.8 °C -4.2 °C 1028 hPa Calm     56% 0 mm meteobridge W/m2
03:14 3.9 °C -4.1 °C 1027.7 hPa Calm     56% 0 mm meteobridge W/m2
03:19 3.9 °C -4.1 °C 1027.3 hPa Calm     56% 0 mm meteobridge W/m2
03:24 3.9 °C -3.8 °C 1027.3 hPa Calm     57% 0 mm meteobridge W/m2
03:29 4 °C -3.8 °C 1027.3 hPa Calm   3.2 km/h 57% 0 mm meteobridge W/m2
03:34 4.2 °C -3.8 °C 1027.3 hPa Calm     56% 0 mm meteobridge W/m2
03:39 4.3 °C -3.5 °C 1027.3 hPa Calm     57% 0 mm meteobridge W/m2
03:44 4.6 °C -3.2 °C 1027.3 hPa Calm   3.2 km/h 57% 0 mm meteobridge W/m2
03:49 4.7 °C -2.6 °C 1027.3 hPa Calm   1.6 km/h 59% 0 mm meteobridge W/m2
03:54 4.7 °C -2.4 °C 1027.3 hPa Calm     60% 0 mm meteobridge W/m2
03:58 4.8 °C -2.1 °C 1027 hPa Calm     61% 0 mm meteobridge W/m2
04:04 4.9 °C -1.8 °C 1027 hPa Calm     62% 0 mm meteobridge W/m2
04:09 5.1 °C -1.1 °C 1026.6 hPa Calm     64% 0 mm meteobridge W/m2
04:14 5.1 °C -0.7 °C 1027 hPa Calm     66% 0 mm meteobridge W/m2
04:19 5.2 °C -0.2 °C 1026.6 hPa Calm     68% 0 mm meteobridge W/m2
04:24 5.3 °C 0.1 °C 1026.6 hPa Calm     69% 0 mm meteobridge W/m2
04:28 5.3 °C 0.3 °C 1027 hPa Calm     70% 0 mm meteobridge W/m2
04:34 5.3 °C 0.3 °C 1027 hPa Calm     70% 0 mm meteobridge W/m2
04:39 5.2 °C 0.2 °C 1027 hPa Calm     70% 0 mm meteobridge W/m2
04:44 5 °C 0 °C 1027 hPa Calm     70% 0 mm meteobridge W/m2
04:49 4.9 °C 0.1 °C 1027 hPa Calm     71% 0 mm meteobridge W/m2
04:54 5 °C 0.4 °C 1027 hPa Calm     72% 0 mm meteobridge W/m2
04:59 5.1 °C 0.7 °C 1027 hPa Calm   1.6 km/h 73% 0 mm meteobridge W/m2
05:04 5.1 °C 0.7 °C 1027 hPa SE 1.4 km/h 1.6 km/h 73% 0 mm meteobridge W/m2
05:09 5.3 °C 1 °C 1027 hPa Calm     74% 0 mm meteobridge W/m2
05:14 5.3 °C 1.2 °C 1027 hPa Calm     75% 0 mm meteobridge W/m2
05:18 5.3 °C 1.2 °C 1026.6 hPa SSW 1.4 km/h 8 km/h 75% 0 mm meteobridge W/m2
05:24 5.4 °C 1.5 °C 1027 hPa Calm   6.4 km/h 76% 0 mm meteobridge W/m2
05:29 5.4 °C 1.5 °C 1026.6 hPa SE 3.2 km/h 8 km/h 76% 0 mm meteobridge W/m2
05:34 5.4 °C 1.5 °C 1027 hPa Calm   1.6 km/h 76% 0 mm meteobridge W/m2
05:39 5.4 °C 1.5 °C 1027 hPa SE 1.4 km/h 3.2 km/h 76% 0 mm meteobridge W/m2
05:44 5.3 °C 1.4 °C 1027 hPa Calm   1.6 km/h 76% 0 mm meteobridge W/m2
05:49 5.3 °C 1.4 °C 1027 hPa ESE 3.2 km/h 3.2 km/h 76% 0 mm meteobridge W/m2
05:54 5.2 °C 1.3 °C 1027 hPa SE 3.2 km/h 6.4 km/h 76% 0 mm meteobridge W/m2
05:59 5.2 °C 1.3 °C 1027 hPa Calm   1.6 km/h 76% 0 mm meteobridge W/m2
06:04 5.1 °C 1.2 °C 1027 hPa SE 1.4 km/h 12.9 km/h 76% 0 mm meteobridge W/m2
06:09 5.1 °C 1.2 °C 1027 hPa SE 7.9 km/h 11.3 km/h 76% 0 mm meteobridge W/m2
06:14 5.1 °C 1.2 °C 1027 hPa East 7.9 km/h 8 km/h 76% 0 mm meteobridge W/m2
06:19 5.1 °C 1.2 °C 1027 hPa ESE 6.4 km/h 11.3 km/h 76% 0 mm meteobridge W/m2
06:24 5 °C 1.1 °C 1027 hPa ESE 11.1 km/h 12.9 km/h 76% 0 mm meteobridge W/m2
06:29 5 °C 1.1 °C 1027 hPa East 7.9 km/h 9.7 km/h 76% 0 mm meteobridge W/m2
06:34 4.9 °C 1 °C 1027 hPa ESE 7.9 km/h 11.3 km/h 76% 0 mm meteobridge W/m2
06:39 4.9 °C 1 °C 1027 hPa SE 3.2 km/h 3.2 km/h 76% 0 mm meteobridge W/m2
06:44 4.8 °C 0.9 °C 1027 hPa Calm   8 km/h 76% 0 mm meteobridge W/m2
06:49 4.8 °C 0.9 °C 1027.3 hPa SE 9.7 km/h 11.3 km/h 76% 0 mm meteobridge W/m2
06:54 4.8 °C 0.9 °C 1027 hPa ESE 6.4 km/h 6.4 km/h 76% 0 mm meteobridge W/m2
06:59 4.8 °C 0.9 °C 1027 hPa SSW 3.2 km/h 8 km/h 76% 0 mm meteobridge W/m2
07:04 4.7 °C 0.8 °C 1027 hPa SE 9.7 km/h 17.7 km/h 76% 0 mm meteobridge W/m2
07:09 4.7 °C 0.8 °C 1027 hPa ESE 3.2 km/h 8 km/h 76% 0 mm meteobridge W/m2
07:14 4.6 °C 0.7 °C 1026.6 hPa SE 1.4 km/h 9.7 km/h 76% 0 mm meteobridge W/m2
07:19 4.6 °C 0.7 °C 1026.6 hPa Calm   11.3 km/h 76% 0 mm meteobridge W/m2
07:24 4.5 °C 0.6 °C 1026.6 hPa East 3.2 km/h 8 km/h 76% 0 mm meteobridge W/m2
07:29 4.5 °C 0.6 °C 1027 hPa SE 9.7 km/h 9.7 km/h 76% 0 mm meteobridge W/m2
07:34 4.4 °C 0.5 °C 1026.6 hPa Calm   8 km/h 76% 0 mm meteobridge W/m2
07:39 4.5 °C 0.6 °C 1026.6 hPa SE 1.4 km/h 11.3 km/h 76% 0 mm meteobridge W/m2
07:44 4.5 °C 0.6 °C 1026.6 hPa Calm   9.7 km/h 76% 0 mm meteobridge W/m2
07:49 4.6 °C 0.7 °C 1026.6 hPa SE 1.4 km/h 11.3 km/h 76% 0 mm meteobridge W/m2
07:54 4.6 °C 0.7 °C 1026.6 hPa East 4.7 km/h 8 km/h 76% 0 mm meteobridge W/m2
07:59 4.7 °C 0.8 °C 1027 hPa SE 7.9 km/h 14.5 km/h 76% 0 mm meteobridge W/m2
08:04 4.8 °C 0.9 °C 1027 hPa Calm   11.3 km/h 76% 0 mm meteobridge W/m2
08:09 4.9 °C 1 °C 1027 hPa SE 3.2 km/h 12.9 km/h 76% 0 mm meteobridge W/m2
08:14 4.9 °C 0.8 °C 1027 hPa Calm   11.3 km/h 75% 0 mm meteobridge W/m2
08:19 5.1 °C 1 °C 1027.3 hPa ESE 7.9 km/h 8 km/h 75% 0 mm meteobridge W/m2
08:24 5.2 °C 1.1 °C 1027 hPa Calm   17.7 km/h 75% 0 mm meteobridge W/m2
08:29 5.2 °C 1.1 °C 1027 hPa SE 3.2 km/h 9.7 km/h 75% 0 mm meteobridge W/m2
08:34 5.2 °C 1.1 °C 1027 hPa SSE 16.3 km/h 16.1 km/h 75% 0 mm meteobridge W/m2
08:39 5.2 °C 1.1 °C 1027.3 hPa ESE 6.4 km/h 11.3 km/h 75% 0 mm meteobridge W/m2
08:44 5.3 °C 1.2 °C 1027.3 hPa SE 9.7 km/h 14.5 km/h 75% 0 mm meteobridge W/m2
08:49 5.3 °C 1.2 °C 1027.3 hPa SE 1.4 km/h 8 km/h 75% 0 mm meteobridge W/m2
08:54 5.4 °C 1.3 °C 1027.3 hPa SE 9.7 km/h 14.5 km/h 75% 0 mm meteobridge W/m2
08:59 5.4 °C 1.3 °C 1027.3 hPa Calm   12.9 km/h 75% 0 mm meteobridge W/m2
09:04 5.5 °C 1.2 °C 1027.3 hPa SE 13 km/h 12.9 km/h 74% 0 mm meteobridge W/m2
09:09 5.6 °C 1.5 °C 1027.3 hPa ESE 1.4 km/h 16.1 km/h 75% 0 mm meteobridge W/m2
09:14 5.7 °C 1.4 °C 1027.3 hPa ESE 1.4 km/h 14.5 km/h 74% 0 mm meteobridge W/m2
09:19 5.8 °C 1.5 °C 1027.3 hPa SE 9.7 km/h 16.1 km/h 74% 0 mm meteobridge W/m2
09:24 5.9 °C 1.6 °C 1027.3 hPa ESE 6.4 km/h 17.7 km/h 74% 0 mm meteobridge W/m2
09:29 6.1 °C 1.6 °C 1027.3 hPa SE 6.4 km/h 9.7 km/h 73% 0 mm meteobridge W/m2
09:34 6.3 °C 1.8 °C 1027.3 hPa SE 7.9 km/h 11.3 km/h 73% 0 mm meteobridge W/m2
09:39 6.4 °C 1.9 °C 1027.3 hPa Calm   3.2 km/h 73% 0 mm meteobridge W/m2
09:44 6.6 °C 2.1 °C 1027.3 hPa Calm   6.4 km/h 73% 0 mm meteobridge W/m2
09:49 6.7 °C 2 °C 1027.3 hPa SE 3.2 km/h 9.7 km/h 72% 0 mm meteobridge W/m2
09:54 6.7 °C 2 °C 1027.3 hPa Calm   6.4 km/h 72% 0 mm meteobridge W/m2
09:59 6.7 °C 2 °C 1027.3 hPa SE 3.2 km/h 6.4 km/h 72% 0 mm meteobridge W/m2
10:04 6.8 °C 2.1 °C 1027.3 hPa Calm   9.7 km/h 72% 0 mm meteobridge W/m2
10:09 6.8 °C 2.1 °C 1027.3 hPa East 3.2 km/h 9.7 km/h 72% 0 mm meteobridge W/m2
10:14 6.8 °C 2.1 °C 1027.3 hPa SE 3.2 km/h 16.1 km/h 72% 0 mm meteobridge W/m2
10:19 6.8 °C 2.3 °C 1027 hPa Calm   9.7 km/h 73% 0 mm meteobridge W/m2
10:23 6.8 °C 2.3 °C 1027.3 hPa SE 6.4 km/h 14.5 km/h 73% 0 mm meteobridge W/m2
10:29 6.9 °C 2.4 °C 1027 hPa Calm   8 km/h 73% 0 mm meteobridge W/m2
10:34 7 °C 2.3 °C 1027 hPa SE 7.9 km/h 12.9 km/h 72% 0 mm meteobridge W/m2
10:39 7 °C 2.3 °C 1026.6 hPa East 3.2 km/h 14.5 km/h 72% 0 mm meteobridge W/m2
10:44 7.1 °C 2.6 °C 1027 hPa ESE 3.2 km/h 12.9 km/h 73% 0 mm meteobridge W/m2
10:49 7.2 °C 2.5 °C 1027 hPa ESE 6.4 km/h 9.7 km/h 72% 0 mm meteobridge W/m2
10:54 7.2 °C 2.5 °C 1027.3 hPa SE 7.9 km/h 14.5 km/h 72% 0 mm meteobridge W/m2
10:59 7.1 °C 2.4 °C 1027 hPa SE 1.4 km/h 17.7 km/h 72% 0 mm meteobridge W/m2
11:04 7 °C 2.3 °C 1027 hPa Calm   12.9 km/h 72% 0 mm meteobridge W/m2
11:09 7.1 °C 2.6 °C 1026.6 hPa SE 7.9 km/h 14.5 km/h 73% 0 mm meteobridge W/m2
11:14 7.1 °C 2.6 °C 1026.6 hPa East 1.4 km/h 9.7 km/h 73% 0 mm meteobridge W/m2
11:19 7.1 °C 2.6 °C 1026.3 hPa SE 13 km/h 16.1 km/h 73% 0 mm meteobridge W/m2
11:24 7.2 °C 2.7 °C 1026.3 hPa Calm   6.4 km/h 73% 0 mm meteobridge W/m2
11:29 7.3 °C 2.6 °C 1026.3 hPa SE 6.4 km/h 9.7 km/h 72% 0 mm meteobridge W/m2
11:34 7.4 °C 2.7 °C 1026.3 hPa ESE 3.2 km/h 12.9 km/h 72% 0 mm meteobridge W/m2
11:39 7.6 °C 2.7 °C 1026 hPa ESE 3.2 km/h 11.3 km/h 71% 0 mm meteobridge W/m2
11:44 7.7 °C 2.6 °C 1026 hPa Calm   3.2 km/h 70% 0 mm meteobridge W/m2
11:49 7.7 °C 2.6 °C 1026 hPa SE 3.2 km/h 3.2 km/h 70% 0 mm meteobridge W/m2
11:54 7.8 °C 2.5 °C 1026 hPa Calm   11.3 km/h 69% 0 mm meteobridge W/m2
11:59 7.7 °C 2.2 °C 1025.6 hPa ESE 1.4 km/h 8 km/h 68% 0 mm meteobridge W/m2
12:04 7.8 °C 2.3 °C 1025.6 hPa Calm   12.9 km/h 68% 0 mm meteobridge W/m2
12:09 7.9 °C 2.2 °C 1025.6 hPa SSE 11.1 km/h 12.9 km/h 67% 0 mm meteobridge W/m2
12:14 7.9 °C 2.2 °C 1025.6 hPa South 7.9 km/h 8 km/h 67% 0 mm meteobridge W/m2
12:19 8.1 °C 2.1 °C 1025.6 hPa Calm   8 km/h 66% 0 mm meteobridge W/m2
12:24 8 °C 2 °C 1025.6 hPa SE 11.1 km/h 11.3 km/h 66% 0 mm meteobridge W/m2
12:29 8 °C 2 °C 1025.6 hPa ESE 6.4 km/h 11.3 km/h 66% 0 mm meteobridge W/m2
12:34 7.9 °C 1.9 °C 1025.3 hPa ESE 3.2 km/h 14.5 km/h 66% 0 mm meteobridge W/m2
12:39 7.9 °C 1.9 °C 1024.9 hPa ESE 1.4 km/h 11.3 km/h 66% 0 mm meteobridge W/m2
12:44 7.9 °C 1.9 °C 1024.9 hPa SSE 6.4 km/h 9.7 km/h 66% 0 mm meteobridge W/m2
12:49 8 °C 2 °C 1024.9 hPa Calm   9.7 km/h 66% 0 mm meteobridge W/m2
12:54 8.1 °C 2.1 °C 1024.6 hPa ESE 1.4 km/h 1.6 km/h 66% 0 mm meteobridge W/m2
12:59 8.2 °C 2.2 °C 1024.6 hPa ESE 3.2 km/h 6.4 km/h 66% 0 mm meteobridge W/m2
13:04 8.2 °C 2.2 °C 1024.6 hPa Calm   11.3 km/h 66% 0 mm meteobridge W/m2
13:09 8.1 °C 1.9 °C 1024.6 hPa SE 7.9 km/h 14.5 km/h 65% 0 mm meteobridge W/m2
13:14 8.1 °C 1.9 °C 1024.6 hPa SSE 6.4 km/h 12.9 km/h 65% 0 mm meteobridge W/m2
13:19 8 °C 2 °C 1024.6 hPa Calm   8 km/h 66% 0 mm meteobridge W/m2
13:24 8.1 °C 2.1 °C 1024.6 hPa East 4.7 km/h 9.7 km/h 66% 0 mm meteobridge W/m2
13:29 8.1 °C 2.1 °C 1024.6 hPa East 6.4 km/h 9.7 km/h 66% 0 mm meteobridge W/m2
13:34 8.1 °C 2.3 °C 1024.3 hPa SE 3.2 km/h 24.1 km/h 67% 0 mm meteobridge W/m2
13:39 8 °C 2 °C 1024.3 hPa Calm   3.2 km/h 66% 0 mm meteobridge W/m2
13:44 7.9 °C 1.9 °C 1023.9 hPa Calm   9.7 km/h 66% 0 mm meteobridge W/m2
13:49 7.9 °C 2.2 °C 1023.9 hPa SE 1.4 km/h 3.2 km/h 67% 0 mm meteobridge W/m2
13:54 8.1 °C 2.3 °C 1023.9 hPa SSE 3.2 km/h 9.7 km/h 67% 0 mm meteobridge W/m2
13:59 8 °C 2.2 °C 1023.9 hPa Calm   6.4 km/h 67% 0 mm meteobridge W/m2
14:04 8 °C 2.2 °C 1023.9 hPa Calm   6.4 km/h 67% 0 mm meteobridge W/m2
14:09 7.9 °C 2.2 °C 1023.6 hPa ESE 6.4 km/h 6.4 km/h 67% 0 mm meteobridge W/m2
14:14 7.9 °C 2.2 °C 1023.6 hPa ESE 6.4 km/h 6.4 km/h 67% 0 mm meteobridge W/m2
14:19 7.9 °C 2.4 °C 1023.6 hPa ESE 1.4 km/h 6.4 km/h 68% 0 mm meteobridge W/m2
14:24 7.8 °C 2.3 °C 1023.6 hPa SE 6.4 km/h 6.4 km/h 68% 0 mm meteobridge W/m2
14:29 7.8 °C 2.3 °C 1023.2 hPa SE 1.4 km/h 9.7 km/h 68% 0 mm meteobridge W/m2
14:34 7.7 °C 2.2 °C 1023.2 hPa Calm   1.6 km/h 68% 0 mm meteobridge W/m2
14:39 7.7 °C 2.4 °C 1023.2 hPa Calm   3.2 km/h 69% 0 mm meteobridge W/m2
14:44 7.7 °C 2.4 °C 1023.2 hPa SE 7.9 km/h 8 km/h 69% 0 mm meteobridge W/m2
14:49 7.7 °C 2.4 °C 1023.2 hPa SE 1.4 km/h 6.4 km/h 69% 0 mm meteobridge W/m2
14:54 7.7 °C 2.4 °C 1023.2 hPa SE 3.2 km/h 6.4 km/h 69% 0 mm meteobridge W/m2
14:59 7.8 °C 2.5 °C 1023.2 hPa ESE 3.2 km/h 9.7 km/h 69% 0 mm meteobridge W/m2
15:04 7.7 °C 2.4 °C 1023.2 hPa Calm   9.7 km/h 69% 0 mm meteobridge W/m2
15:09 7.7 °C 2.6 °C 1023.2 hPa Calm   1.6 km/h 70% 0 mm meteobridge W/m2
15:14 7.8 °C 2.5 °C 1023.2 hPa ESE 6.4 km/h 6.4 km/h 69% 0 mm meteobridge W/m2
15:19 7.8 °C 2.5 °C 1022.9 hPa ESE 3.2 km/h 8 km/h 69% 0 mm meteobridge W/m2
15:24 7.7 °C 2.2 °C 1022.9 hPa SE 3.2 km/h 12.9 km/h 68% 0 mm meteobridge W/m2
15:29 7.7 °C 2.2 °C 1022.6 hPa SSE 9.7 km/h 14.5 km/h 68% 0 mm meteobridge W/m2
15:34 7.6 °C 2.1 °C 1022.6 hPa South 6.4 km/h 16.1 km/h 68% 0 mm meteobridge W/m2
15:39 7.5 °C 2 °C 1022.6 hPa Calm   8 km/h 68% 0 mm meteobridge W/m2
15:44 7.5 °C 2.2 °C 1022.6 hPa Calm   8 km/h 69% 0 mm meteobridge W/m2
15:49 7.5 °C 2.2 °C 1022.2 hPa Calm   8 km/h 69% 0 mm meteobridge W/m2
15:54 7.4 °C 2.1 °C 1022.2 hPa SE 1.4 km/h 8 km/h 69% 0 mm meteobridge W/m2
15:59 7.4 °C 2.1 °C 1022.2 hPa Calm   3.2 km/h 69% 0 mm meteobridge W/m2
16:04 7.3 °C 2 °C 1021.9 hPa ESE 3.2 km/h 11.3 km/h 69% 0 mm meteobridge W/m2
16:09 7.3 °C 2.2 °C 1022.2 hPa Calm     70% 0 mm meteobridge W/m2
16:14 7.3 °C 2.2 °C 1021.9 hPa ESE 3.2 km/h 8 km/h 70% 0 mm meteobridge W/m2
16:19 7.3 °C 2.4 °C 1021.9 hPa Calm   1.6 km/h 71% 0 mm meteobridge W/m2
16:24 7.3 °C 2.4 °C 1021.9 hPa SE 6.4 km/h 8 km/h 71% 0 mm meteobridge W/m2
16:29 7.4 °C 2.5 °C 1021.9 hPa Calm     71% 0 mm meteobridge W/m2
16:34 7.4 °C 2.5 °C 1021.9 hPa ESE 1.4 km/h 6.4 km/h 71% 0 mm meteobridge W/m2
16:39 7.4 °C 2.5 °C 1021.6 hPa Calm   8 km/h 71% 0 mm meteobridge W/m2
16:44 7.4 °C 2.5 °C 1021.6 hPa East 7.9 km/h 14.5 km/h 71% 0 mm meteobridge W/m2
16:49 7.4 °C 2.5 °C 1021.9 hPa SE 6.4 km/h 9.7 km/h 71% 0 mm meteobridge W/m2
16:54 7.4 °C 2.5 °C 1021.9 hPa East 1.4 km/h 11.3 km/h 71% 0 mm meteobridge W/m2
16:59 7.4 °C 2.7 °C 1021.9 hPa SE 6.4 km/h 8 km/h 72% 0 mm meteobridge W/m2
17:04 7.2 °C 2.7 °C 1021.9 hPa SE 1.4 km/h 20.9 km/h 73% 0 mm meteobridge W/m2
17:09 7.1 °C 2.8 °C 1021.9 hPa SE 3.2 km/h 8 km/h 74% 0 mm meteobridge W/m2
17:14 6.9 °C 2.8 °C 1022.2 hPa SE 3.2 km/h 11.3 km/h 75% 0 mm meteobridge W/m2
17:19 6.8 °C 2.7 °C 1022.2 hPa SSE 3.2 km/h 8 km/h 75% 0 mm meteobridge W/m2
17:24 6.6 °C 2.5 °C 1022.2 hPa Calm   3.2 km/h 75% 0 mm meteobridge W/m2
17:29 6.2 °C 1.9 °C 1021.9 hPa Calm   17.7 km/h 74% 0 mm meteobridge W/m2
17:34 6.1 °C 1.6 °C 1021.9 hPa ESE 3.2 km/h 8 km/h 73% 0 mm meteobridge W/m2
17:39 5.9 °C 1.4 °C 1021.6 hPa Calm   8 km/h 73% 0 mm meteobridge W/m2
17:44 5.9 °C 1.4 °C 1021.9 hPa SE 3.2 km/h 6.4 km/h 73% 0 mm meteobridge W/m2
17:49 5.8 °C 1.1 °C 1021.6 hPa Calm   3.2 km/h 72% 0 mm meteobridge W/m2
17:54 5.7 °C 0.7 °C 1021.6 hPa Calm   8 km/h 70% 0.25 mm meteobridge W/m2
17:59 5.6 °C 0.2 °C 1021.6 hPa Calm     68% 0.25 mm meteobridge W/m2
18:04 5.4 °C -0.2 °C 1021.2 hPa SSE 3.2 km/h 11.3 km/h 67% 0.25 mm meteobridge W/m2
18:09 5.4 °C -0.2 °C 1021.6 hPa Calm   8 km/h 67% 0.25 mm meteobridge W/m2
18:14 5.4 °C -0.2 °C 1021.2 hPa SE 6.4 km/h 9.7 km/h 67% 0.25 mm meteobridge W/m2
18:19 5.4 °C 0 °C 1021.2 hPa ESE 1.4 km/h 12.9 km/h 68% 0.25 mm meteobridge W/m2
18:23 5.4 °C 0.2 °C 1020.9 hPa ESE 9.7 km/h 17.7 km/h 69% 0.25 mm meteobridge W/m2
18:29 5.4 °C 0.4 °C 1020.5 hPa East 7.9 km/h 11.3 km/h 70% 0.25 mm meteobridge W/m2
18:34 5.5 °C 0.5 °C 1020.5 hPa SE 1.4 km/h 9.7 km/h 70% 0.25 mm meteobridge W/m2
18:39 5.5 °C 0.5 °C 1020.5 hPa Calm   11.3 km/h 70% 0.25 mm meteobridge W/m2
18:44 5.5 °C 0.5 °C 1020.9 hPa Calm   14.5 km/h 70% 0.25 mm meteobridge W/m2
18:49 5.4 °C 0.2 °C 1020.9 hPa ESE 1.4 km/h 1.6 km/h 69% 0.25 mm meteobridge W/m2
18:54 5.4 °C 0.2 °C 1020.9 hPa Calm     69% 0 mm meteobridge W/m2
18:59 5.5 °C 0.3 °C 1020.9 hPa SE 1.4 km/h 12.9 km/h 69% 0 mm meteobridge W/m2
19:04 5.5 °C 0.3 °C 1020.5 hPa Calm     69% 0 mm meteobridge W/m2
19:09 5.6 °C 0.4 °C 1020.5 hPa Calm     69% 0 mm meteobridge W/m2
19:14 5.6 °C 0.6 °C 1020.2 hPa East 3.2 km/h 8 km/h 70% 0 mm meteobridge W/m2
19:18 5.7 °C 0.9 °C 1020.2 hPa Calm   6.4 km/h 71% 0 mm meteobridge W/m2
19:24 5.7 °C 0.9 °C 1019.9 hPa ESE 7.9 km/h 20.9 km/h 71% 0 mm meteobridge W/m2
19:29 5.4 °C 0.4 °C 1020.2 hPa ESE 13 km/h 14.5 km/h 70% 0 mm meteobridge W/m2
19:34 5.3 °C 0.1 °C 1019.9 hPa Calm   12.9 km/h 69% 0 mm meteobridge W/m2
19:39 5.2 °C -0.2 °C 1019.9 hPa Calm   9.7 km/h 68% 0 mm meteobridge W/m2
19:44 5.1 °C -0.3 °C 1019.5 hPa Calm   9.7 km/h 68% 0 mm meteobridge W/m2
19:49 4.9 °C -0.5 °C 1019.5 hPa Calm   6.4 km/h 68% 0 mm meteobridge W/m2
19:54 4.8 °C -0.4 °C 1019.5 hPa SE 6.4 km/h 8 km/h 69% 0 mm meteobridge W/m2
19:59 4.8 °C -0.4 °C 1019.9 hPa Calm   6.4 km/h 69% 0 mm meteobridge W/m2
20:04 4.8 °C -0.4 °C 1019.9 hPa Calm   1.6 km/h 69% 0 mm meteobridge W/m2
20:09 4.7 °C -0.3 °C 1019.9 hPa ESE 3.2 km/h 8 km/h 70% 0 mm meteobridge W/m2
20:14 4.7 °C -0.3 °C 1019.5 hPa SE 3.2 km/h 14.5 km/h 70% 0 mm meteobridge W/m2
20:19 4.6 °C -0.4 °C 1019.2 hPa ESE 1.4 km/h 11.3 km/h 70% 0 mm meteobridge W/m2
20:24 4.6 °C -0.4 °C 1019.2 hPa Calm   11.3 km/h 70% 0 mm meteobridge W/m2
20:29 4.4 °C -0.8 °C 1019.5 hPa SE 11.1 km/h 12.9 km/h 69% 0 mm meteobridge W/m2
20:34 4.4 °C -0.8 °C 1018.8 hPa Calm   8 km/h 69% 0 mm meteobridge W/m2
20:39 4.3 °C -0.9 °C 1018.8 hPa Calm   11.3 km/h 69% 0 mm meteobridge W/m2
20:44 4.2 °C -1.2 °C 1018.8 hPa SE 3.2 km/h 6.4 km/h 68% 0 mm meteobridge W/m2
20:49 4.2 °C -1.4 °C 1018.8 hPa Calm   6.4 km/h 67% 0 mm meteobridge W/m2
20:54 4.1 °C -1.5 °C 1018.8 hPa East 1.4 km/h 9.7 km/h 67% 0 mm meteobridge W/m2
20:59 4.1 °C -1.7 °C 1018.8 hPa ESE 11.1 km/h 11.3 km/h 66% 0 mm meteobridge W/m2
21:04 4 °C -1.6 °C 1018.8 hPa SE 13 km/h 12.9 km/h 67% 0 mm meteobridge W/m2
21:09 3.9 °C -1.7 °C 1018.5 hPa SE 13 km/h 12.9 km/h 67% 0 mm meteobridge W/m2
21:14 3.9 °C -1.7 °C 1018.8 hPa Calm   12.9 km/h 67% 0 mm meteobridge W/m2
21:19 3.9 °C -1.7 °C 1018.5 hPa SE 9.7 km/h 12.9 km/h 67% 0 mm meteobridge W/m2
21:24 3.9 °C -1.3 °C 1018.5 hPa SE 3.2 km/h 11.3 km/h 69% 0 mm meteobridge W/m2
21:29 3.9 °C -1.3 °C 1018.5 hPa SE 14.3 km/h 19.3 km/h 69% 0 mm meteobridge W/m2
21:34 3.9 °C -1.1 °C 1018.5 hPa Calm   9.7 km/h 70% 0 mm meteobridge W/m2
21:39 3.9 °C -1.1 °C 1018.8 hPa SE 3.2 km/h 12.9 km/h 70% 0 mm meteobridge W/m2
21:44 3.9 °C -1.1 °C 1018.8 hPa Calm   12.9 km/h 70% 0 mm meteobridge W/m2
21:49 3.9 °C -1.1 °C 1018.5 hPa SE 7.9 km/h 9.7 km/h 70% 0 mm meteobridge W/m2
21:54 3.8 °C -1.2 °C 1018.5 hPa ESE 13 km/h 16.1 km/h 70% 0 mm meteobridge W/m2
21:59 3.8 °C -1.2 °C 1018.8 hPa SSE 9.7 km/h 19.3 km/h 70% 0 mm meteobridge W/m2
22:04 3.8 °C -1.2 °C 1018.8 hPa ESE 6.4 km/h 27.4 km/h 70% 0 mm meteobridge W/m2
22:09 3.7 °C -1.3 °C 1018.8 hPa SE 6.4 km/h 14.5 km/h 70% 0 mm meteobridge W/m2
22:14 3.7 °C -1.3 °C 1019.2 hPa ESE 3.2 km/h 8 km/h 70% 0 mm meteobridge W/m2
22:19 3.7 °C -1.3 °C 1019.2 hPa SE 1.4 km/h 9.7 km/h 70% 0 mm meteobridge W/m2
22:24 3.7 °C -1.3 °C 1018.8 hPa Calm   1.6 km/h 70% 0 mm meteobridge W/m2
22:29 3.7 °C -1.5 °C 1018.8 hPa Calm     69% 0 mm meteobridge W/m2
22:34 3.7 °C -1.5 °C 1018.8 hPa Calm   6.4 km/h 69% 0 mm meteobridge W/m2
22:39 3.8 °C -1.4 °C 1018.8 hPa Calm   9.7 km/h 69% 0 mm meteobridge W/m2
22:44 3.8 °C -1.6 °C 1018.8 hPa Calm   3.2 km/h 68% 0 mm meteobridge W/m2
22:49 3.8 °C -1.6 °C 1018.8 hPa ESE 6.4 km/h 9.7 km/h 68% 0 mm meteobridge W/m2
22:54 3.8 °C -1.8 °C 1018.8 hPa ESE 3.2 km/h 11.3 km/h 67% 0 mm meteobridge W/m2
22:59 3.7 °C -2.1 °C 1019.2 hPa ESE 1.4 km/h 12.9 km/h 66% 0 mm meteobridge W/m2
23:04 3.7 °C -2.1 °C 1018.8 hPa SE 3.2 km/h 6.4 km/h 66% 0 mm meteobridge W/m2
23:09 3.7 °C -2.1 °C 1018.5 hPa SE 1.4 km/h 11.3 km/h 66% 0 mm meteobridge W/m2
23:14 3.7 °C -2.1 °C 1018.2 hPa ESE 1.4 km/h 1.6 km/h 66% 0 mm meteobridge W/m2
23:19 3.7 °C -2.1 °C 1017.8 hPa Calm     66% 0 mm meteobridge W/m2
23:24 3.6 °C -2.2 °C 1018.2 hPa Calm   3.2 km/h 66% 0 mm meteobridge W/m2
23:29 3.6 °C -2.2 °C 1018.5 hPa Calm   6.4 km/h 66% 0 mm meteobridge W/m2
23:34 3.5 °C -2.3 °C 1018.2 hPa Calm   1.6 km/h 66% 0 mm meteobridge W/m2
23:39 3.5 °C -2.3 °C 1017.8 hPa Calm   8 km/h 66% 0 mm meteobridge W/m2
23:44 3.6 °C -2.2 °C 1018.2 hPa SE 13 km/h 14.5 km/h 66% 0 mm meteobridge W/m2
23:49 3.6 °C -2 °C 1017.8 hPa Calm   12.9 km/h 67% 0 mm meteobridge W/m2
23:54 3.7 °C -1.7 °C 1017.5 hPa East 1.4 km/h 12.9 km/h 68% 0 mm meteobridge W/m2
23:59 3.7 °C -1.7 °C 1017.8 hPa Calm   8 km/h 68% 0 mm meteobridge W/m2
EllijayWeather
Compliments of Weather Underground - 2.5 mb